BIISBIAR

Guest
Details From BIIS - Isafjordur
To BIAR - Akureyri
Flight Number -
Tags decoded
Created
Modified
Stats Distance 127 nm / 236 km
Max Altitude 0 ft / 0 m
Waypoints 4
Social Downloads 1
Likes 0
Share VATSIM

Download

Looking for another format? Having issues loading an existing format? Contact us
Advertisement - Login to hide

Notes

Requested: BIIS RE1S RE R2 HE AKI1A BIAR Unmatched points: RE1S AKI1A

Route

BIIS RE R2 HE BIAR

ID Type Via Altitude Latitude Longitude Leg Dist Tot Dist Heading (true) Name
O BIIS APT - 0 ft / 0 m 66.05810˚ -23.13520˚ - 0 nm - Isafjordur
RE NDB - 0 ft / 0 m 65.92650˚ -22.43153˚ 18 nm 18 nm 114° / 115° REYKJANESSKOLI NDB
HE NDB R2 (AWY-LO) 0 ft / 0 m 65.75086˚ -19.51906˚ 72 nm 91 nm 97° / 100° HEGRANES NDB
O BIAR APT - 0 ft / 0 m 65.65657˚ -18.07197˚ 36 nm 127 nm 98° / 100° Akureyri

Altitude Profile

Advertisement - Login to hide

BIIS

Details ICAO BIIS (IFJ)
Name Isafjordur
Region Iceland
Timezone Unknown (UTC+0.0)
Stats Elevation 7 ft / 2 m (AMSL)
Location 66.058100° -23.135201°
Runways 1
Magnetic Variation 15.278° W

METAR

BIIS 180900Z 22026G37KT 9999 SCT030 07/M00 Q0988 RMK 08 230 25G34

Decode

TAF

Not found

Departure Runways

ID Width Length Bearing (true) Bearing (mag) Surface Threshold Offset Overrun Length
08 139 ft / 42 m 4,598 ft / 1,401 m 61.84° 77.12° Asphalt 0 ft / 0 m 0 ft / 0 m
26 139 ft / 42 m 4,598 ft / 1,401 m 241.86° 257.14° Asphalt 0 ft / 0 m 0 ft / 0 m

BIAR

Details ICAO BIAR (AEY)
Name Akureyri
Region Iceland
Timezone Unknown (UTC+0.0)
Stats Elevation 5 ft / 2 m (AMSL)
Location 65.656574° -18.071975°
Runways 1
Magnetic Variation 12.292° W

METAR

BIAR 180900Z 21022G32KT CAVOK 10/02 Q0991 R01/790539 RMK RWY SANDED

Decode

TAF

TAF TAF BIAR 180759Z 1809/1909 19020G35KT 9999 FEW025 SCT045 TX10/1818Z TN03/1906Z TEMPO 1809/1818 19030G45KT TEMPO 1815/1824 RA BKN025 OVC035

Decode

Destination Runways

ID Width Length Bearing (true) Bearing (mag) Surface Threshold Offset Overrun Length
01 148 ft / 45 m 7,855 ft / 2,394 m 355.54° 7.83° Asphalt 0 ft / 0 m 0 ft / 0 m
19 148 ft / 45 m 7,855 ft / 2,394 m 175.54° 187.83° Asphalt 0 ft / 0 m 0 ft / 0 m

Approach Navaids

Runway Type Ident Frequency Range Bearing (true) Bearing (mag) Slope Elevation
01 Localiser IEY 111.90 MHz 18 nm / 33 km 24.00° 36.29° - 200 ft / 61 m (AMSL)
01 Glidescope IEY 111.90 MHz 10 nm / 19 km 358.14° 10.43° 5.00° 44 ft / 13 m (AMSL)

Popular Alternatives